createdAt,value
2022-12-08T00:01:11.509Z,7.92
2022-12-08T00:03:38.667Z,8.40
2022-12-08T00:06:25.709Z,7.94
2022-12-08T00:09:11.164Z,7.75
2022-12-08T00:11:39.206Z,8.73
2022-12-08T00:14:05.868Z,8.77
2022-12-08T00:16:32.714Z,8.10
2022-12-08T00:18:59.439Z,7.80
2022-12-08T00:21:26.133Z,8.33
2022-12-08T00:23:56.291Z,8.12
2022-12-08T00:26:23.540Z,8.94
2022-12-08T00:28:50.355Z,9.08
2022-12-08T00:31:17.311Z,8.50
2022-12-08T00:33:44.109Z,8.07
2022-12-08T00:36:13.454Z,8.34
2022-12-08T00:38:41.811Z,8.64
2022-12-08T00:41:13.977Z,8.16
2022-12-08T00:43:40.881Z,7.99
2022-12-08T00:46:07.773Z,8.92
2022-12-08T00:48:34.940Z,8.28
2022-12-08T00:51:01.756Z,7.92
2022-12-08T00:53:28.628Z,7.78
2022-12-08T00:55:55.340Z,7.91
2022-12-08T00:58:22.131Z,7.68
2022-12-08T01:00:48.971Z,7.79
2022-12-08T01:03:15.835Z,8.11
2022-12-08T01:05:44.558Z,7.98
2022-12-08T01:08:11.511Z,7.90
2022-12-08T01:10:39.567Z,7.52
2022-12-08T01:13:06.410Z,7.99
2022-12-08T01:15:33.107Z,7.99
2022-12-08T01:17:59.959Z,7.92
2022-12-08T01:20:27.314Z,8.03
2022-12-08T01:22:54.255Z,7.52
2022-12-08T01:25:21.161Z,7.71
2022-12-08T01:27:48.364Z,7.98
2022-12-08T01:30:15.248Z,7.71
2022-12-08T01:32:42.014Z,7.47
2022-12-08T01:35:09.362Z,7.11
2022-12-08T01:37:36.252Z,7.26
2022-12-08T01:40:03.765Z,7.43
2022-12-08T01:42:32.430Z,7.25
2022-12-08T01:45:03.054Z,7.26
2022-12-08T01:47:43.492Z,7.05
2022-12-08T01:50:12.106Z,7.03
2022-12-08T01:52:46.868Z,7.23
2022-12-08T01:55:20.700Z,7.36
2022-12-08T01:57:50.114Z,7.63
2022-12-08T02:00:20.025Z,6.98
2022-12-08T02:02:58.898Z,7.38
2022-12-08T02:05:33.981Z,7.32
2022-12-08T02:08:04.802Z,7.22
2022-12-08T02:10:35.268Z,7.05
2022-12-08T02:13:03.836Z,7.19
2022-12-08T02:15:59.219Z,7.18
2022-12-08T02:18:44.190Z,7.16
2022-12-08T02:21:14.202Z,7.04
2022-12-08T02:24:03.027Z,7.73
2022-12-08T02:26:44.478Z,7.46
2022-12-08T02:29:41.794Z,6.99
2022-12-08T02:32:30.242Z,7.09
2022-12-08T02:35:23.697Z,6.93
2022-12-08T02:37:57.870Z,7.73
2022-12-08T02:40:45.099Z,7.39
2022-12-08T02:43:23.808Z,6.68
2022-12-08T02:45:54.198Z,6.70
2022-12-08T02:48:21.137Z,6.82
2022-12-08T02:50:47.802Z,6.85
2022-12-08T02:55:56.466Z,6.91
2022-12-08T02:58:45.755Z,6.66
2022-12-08T03:01:34.299Z,7.05
2022-12-08T03:04:10.965Z,6.89
2022-12-08T03:06:57.876Z,6.49
2022-12-08T03:09:36.377Z,6.82
2022-12-08T03:12:29.541Z,7.17
2022-12-08T03:14:59.584Z,6.94
2022-12-08T03:17:28.394Z,6.69
2022-12-08T03:19:57.374Z,6.85
2022-12-08T03:22:26.274Z,6.42
2022-12-08T03:24:53.434Z,6.52
2022-12-08T03:27:22.765Z,6.59
2022-12-08T03:29:51.904Z,6.38
2022-12-08T03:32:30.753Z,6.35
2022-12-08T03:34:59.250Z,6.47
2022-12-08T03:37:27.972Z,6.75
2022-12-08T03:39:55.062Z,7.03
2022-12-08T03:42:21.952Z,6.91
2022-12-08T03:44:49.458Z,6.81
2022-12-08T03:47:16.191Z,6.93
2022-12-08T03:49:42.874Z,7.14
2022-12-08T03:52:09.597Z,6.78
2022-12-08T03:54:36.291Z,6.93
2022-12-08T03:57:03.039Z,7.01
2022-12-08T03:59:29.881Z,6.80
2022-12-08T04:01:56.688Z,6.68
2022-12-08T04:04:23.458Z,7.09
2022-12-08T04:06:50.686Z,6.99
2022-12-08T04:09:18.266Z,7.03
2022-12-08T04:11:45.225Z,6.63
2022-12-08T04:14:12.006Z,7.02
2022-12-08T04:16:38.866Z,6.84
2022-12-08T04:19:05.775Z,6.86
2022-12-08T04:21:32.630Z,6.53
2022-12-08T04:24:01.439Z,7.35
2022-12-08T04:26:28.620Z,6.99
2022-12-08T04:28:55.384Z,6.91
2022-12-08T04:31:22.316Z,7.06
2022-12-08T04:33:49.237Z,6.80
2022-12-08T04:36:16.244Z,7.73
2022-12-08T04:38:42.913Z,7.70
2022-12-08T04:41:10.229Z,6.79
2022-12-08T04:43:37.270Z,7.63
2022-12-08T04:46:08.682Z,7.64
2022-12-08T04:48:37.632Z,6.89
2022-12-08T04:51:04.873Z,7.04
2022-12-08T04:53:31.798Z,7.03
2022-12-08T04:55:58.632Z,6.85
2022-12-08T04:58:25.455Z,7.50
2022-12-08T05:00:52.291Z,7.04
2022-12-08T05:03:25.160Z,7.56
2022-12-08T05:05:55.157Z,7.05
2022-12-08T05:08:22.418Z,7.42
2022-12-08T05:10:49.189Z,7.35
2022-12-08T05:13:15.924Z,7.14
2022-12-08T05:15:42.725Z,7.01
2022-12-08T05:18:09.418Z,7.11
2022-12-08T05:20:36.611Z,7.47
2022-12-08T05:23:03.406Z,7.46
2022-12-08T05:25:30.334Z,7.26
2022-12-08T05:28:17.539Z,6.75
2022-12-08T05:30:43.925Z,6.87
2022-12-08T05:33:11.488Z,7.27
2022-12-08T05:35:38.331Z,7.20
2022-12-08T05:38:06.077Z,6.76
2022-12-08T05:40:32.928Z,6.70
2022-12-08T05:42:59.674Z,7.22
2022-12-08T05:45:27.144Z,7.05
2022-12-08T05:47:54.094Z,6.84
2022-12-08T05:50:20.824Z,7.25
2022-12-08T05:52:47.505Z,6.82
2022-12-08T05:55:14.246Z,6.97
2022-12-08T05:57:41.064Z,7.27
2022-12-08T06:00:08.432Z,7.22
2022-12-08T06:02:38.562Z,7.16
2022-12-08T06:05:05.727Z,7.62
2022-12-08T06:07:32.388Z,8.08
2022-12-08T06:09:59.083Z,7.50
2022-12-08T06:12:25.928Z,7.51
2022-12-08T06:14:52.580Z,7.52
2022-12-08T06:17:19.337Z,6.70
2022-12-08T06:19:46.233Z,6.75
2022-12-08T06:22:13.130Z,7.17
2022-12-08T06:24:40.608Z,7.05
2022-12-08T06:27:07.347Z,7.06
2022-12-08T06:29:34.134Z,7.52
2022-12-08T06:32:00.855Z,7.26
2022-12-08T06:34:27.804Z,6.94
2022-12-08T06:36:54.472Z,7.01
2022-12-08T06:39:21.276Z,6.87
2022-12-08T06:42:06.356Z,7.01
2022-12-08T06:44:33.583Z,6.79
2022-12-08T06:47:00.333Z,6.55
2022-12-08T06:49:26.987Z,6.71
2022-12-08T06:51:53.608Z,6.69
2022-12-08T06:54:20.255Z,6.93
2022-12-08T06:56:46.977Z,6.64
2022-12-08T06:59:13.738Z,7.10
2022-12-08T07:01:40.751Z,6.69
2022-12-08T07:04:07.462Z,6.64
2022-12-08T07:06:34.313Z,6.68
2022-12-08T07:09:01.149Z,6.67
2022-12-08T07:11:27.819Z,6.70
2022-12-08T07:13:57.114Z,6.68
2022-12-08T07:16:24.076Z,6.44
2022-12-08T07:18:50.909Z,6.71
2022-12-08T07:21:18.053Z,6.77
2022-12-08T07:23:54.329Z,6.42
2022-12-08T07:26:24.228Z,6.69
2022-12-08T07:28:50.908Z,6.56
2022-12-08T07:31:23.331Z,6.64
2022-12-08T07:33:50.769Z,6.92
2022-12-08T07:36:17.671Z,6.50
2022-12-08T07:38:44.707Z,6.97
2022-12-08T07:41:16.136Z,6.99
2022-12-08T07:43:43.348Z,7.39
2022-12-08T07:46:14.840Z,7.32
2022-12-08T07:48:42.181Z,7.22
2022-12-08T07:51:10.273Z,7.04
2022-12-08T07:53:42.296Z,6.69
2022-12-08T07:56:11.518Z,6.91
2022-12-08T07:58:38.401Z,6.44
2022-12-08T08:01:05.833Z,6.81
2022-12-08T08:03:33.126Z,6.63
2022-12-08T08:06:04.499Z,6.80
2022-12-08T08:08:31.986Z,6.56
2022-12-08T08:10:58.827Z,6.71
2022-12-08T08:13:28.228Z,6.80
2022-12-08T08:15:55.456Z,6.63
2022-12-08T08:18:22.331Z,7.24
2022-12-08T08:20:49.770Z,7.27
2022-12-08T08:23:16.550Z,6.98
2022-12-08T08:25:43.353Z,6.97
2022-12-08T08:28:10.286Z,6.90
2022-12-08T08:30:37.053Z,6.82
2022-12-08T08:33:03.896Z,7.12
2022-12-08T08:35:30.895Z,6.65
2022-12-08T08:37:58.713Z,6.57
2022-12-08T08:40:25.782Z,6.95
2022-12-08T08:42:52.588Z,6.77
2022-12-08T08:45:19.883Z,7.07
2022-12-08T08:47:46.902Z,7.26
2022-12-08T08:50:13.678Z,6.70
2022-12-08T08:52:40.493Z,7.19
2022-12-08T08:55:07.518Z,7.03
2022-12-08T08:57:34.609Z,6.92
2022-12-08T09:00:04.163Z,7.43
2022-12-08T09:02:31.314Z,7.58
2022-12-08T09:04:58.436Z,6.90
2022-12-08T09:07:25.260Z,7.11
2022-12-08T09:09:54.734Z,7.41
2022-12-08T09:12:25.114Z,7.57
2022-12-08T09:14:51.949Z,7.47
2022-12-08T09:17:28.950Z,7.87
2022-12-08T09:19:55.778Z,7.97
2022-12-08T09:22:23.275Z,7.05
2022-12-08T09:24:50.003Z,7.34
2022-12-08T09:27:16.751Z,7.64
2022-12-08T09:29:43.750Z,7.83
2022-12-08T09:32:10.705Z,8.08
2022-12-08T09:34:37.509Z,6.96
2022-12-08T09:37:04.744Z,7.50
2022-12-08T09:39:35.619Z,7.36
2022-12-08T09:42:07.739Z,7.43
2022-12-08T09:44:59.860Z,7.26
2022-12-08T09:47:36.084Z,7.16
2022-12-08T09:50:22.147Z,7.25
2022-12-08T09:53:01.699Z,6.99
2022-12-08T09:55:51.166Z,6.78
2022-12-08T09:58:47.661Z,6.68
2022-12-08T10:01:15.426Z,7.30
2022-12-08T10:03:42.675Z,7.12
2022-12-08T10:06:28.117Z,7.56
2022-12-08T10:08:59.157Z,7.60
2022-12-08T10:11:44.755Z,7.11
2022-12-08T10:14:43.671Z,7.24
2022-12-08T10:17:22.413Z,7.20
2022-12-08T10:19:50.139Z,7.33
2022-12-08T10:22:26.950Z,6.81
2022-12-08T10:25:05.939Z,6.78
2022-12-08T10:27:36.402Z,7.50
2022-12-08T10:30:12.194Z,7.84
2022-12-08T10:32:39.588Z,7.72
2022-12-08T10:35:09.673Z,7.77
2022-12-08T10:37:36.985Z,7.38
2022-12-08T10:40:15.135Z,7.65
2022-12-08T10:42:46.444Z,7.49
2022-12-08T10:45:26.610Z,7.51
2022-12-08T10:48:15.714Z,7.64
2022-12-08T10:50:46.056Z,7.77
2022-12-08T10:53:21.833Z,7.51
2022-12-08T10:55:51.349Z,7.40
2022-12-08T10:58:40.851Z,7.52
2022-12-08T11:01:27.120Z,7.59
2022-12-08T11:03:59.687Z,8.58
2022-12-08T11:06:36.665Z,8.71
2022-12-08T11:09:15.900Z,8.05
2022-12-08T11:11:52.974Z,7.61
2022-12-08T11:14:24.873Z,7.65
2022-12-08T11:16:53.727Z,7.39
2022-12-08T11:19:21.402Z,7.16
2022-12-08T11:21:48.235Z,7.67
2022-12-08T11:24:14.880Z,7.39
2022-12-08T11:26:46.923Z,7.59
2022-12-08T11:29:13.862Z,7.63
2022-12-08T11:31:44.778Z,7.95
2022-12-08T11:34:19.955Z,8.29
2022-12-08T11:36:47.156Z,8.41
2022-12-08T11:39:14.695Z,8.41
2022-12-08T11:41:42.999Z,8.81
2022-12-08T11:44:58.799Z,8.37
2022-12-08T11:47:36.613Z,8.58
2022-12-08T11:50:20.252Z,8.72
2022-12-08T11:52:50.657Z,9.12
2022-12-08T11:55:39.411Z,8.64
2022-12-08T11:58:18.369Z,8.87
2022-12-08T12:00:45.329Z,9.25
2022-12-08T12:03:46.986Z,9.29
2022-12-08T12:06:46.553Z,8.70
2022-12-08T12:09:17.835Z,8.80
2022-12-08T12:12:22.504Z,9.06
2022-12-08T12:15:18.189Z,9.09
2022-12-08T12:17:51.321Z,9.55
2022-12-08T12:20:25.896Z,8.77
2022-12-08T12:23:01.669Z,8.87
2022-12-08T12:25:28.799Z,8.69
2022-12-08T12:27:59.424Z,9.32
2022-12-08T12:30:30.312Z,8.73
2022-12-08T12:32:59.522Z,8.74
2022-12-08T12:35:33.783Z,8.44
2022-12-08T12:38:04.728Z,8.68
2022-12-08T12:40:41.470Z,8.92
2022-12-08T12:43:13.815Z,8.42
2022-12-08T12:45:44.162Z,8.28
2022-12-08T12:48:23.055Z,9.41
2022-12-08T12:50:51.717Z,8.73
2022-12-08T12:53:19.025Z,9.64
2022-12-08T12:55:46.000Z,9.50
2022-12-08T12:58:20.432Z,10.07
2022-12-08T13:00:47.277Z,9.33
2022-12-08T13:03:15.350Z,8.71
2022-12-08T13:05:51.735Z,9.30
2022-12-08T13:08:24.191Z,9.37
2022-12-08T13:11:04.432Z,9.64
2022-12-08T13:13:31.755Z,9.24
2022-12-08T13:16:19.084Z,9.38
2022-12-08T13:18:51.539Z,9.22
2022-12-08T13:21:23.280Z,9.12
2022-12-08T13:24:09.724Z,8.84
2022-12-08T13:27:04.036Z,8.59
2022-12-08T13:29:31.907Z,8.60
2022-12-08T13:32:01.213Z,8.97
2022-12-08T13:34:45.522Z,9.35
2022-12-08T13:37:12.531Z,9.50
2022-12-08T13:39:39.306Z,9.56
2022-12-08T13:42:06.155Z,9.37
2022-12-08T13:45:18.644Z,8.70
2022-12-08T13:47:37.258Z,8.94
2022-12-08T13:59:10.103Z,8.10
2022-12-08T14:01:43.996Z,8.66
2022-12-08T14:04:53.972Z,8.27
2022-12-08T14:07:04.302Z,8.53
2022-12-08T14:09:36.184Z,8.63
2022-12-08T14:12:09.727Z,9.00
2022-12-08T14:17:28.739Z,9.05
2022-12-08T14:20:06.677Z,9.18
2022-12-08T14:22:38.749Z,9.08
2022-12-08T14:25:08.410Z,9.26
2022-12-08T14:27:37.229Z,9.01
2022-12-08T14:30:13.897Z,9.11
2022-12-08T14:32:55.909Z,9.32
2022-12-08T14:35:27.755Z,9.43
2022-12-08T14:37:59.834Z,9.18
2022-12-08T14:40:45.041Z,8.96
2022-12-08T14:43:15.985Z,9.12
2022-12-08T14:45:42.751Z,9.12
2022-12-08T14:48:26.114Z,9.24
2022-12-08T14:51:20.872Z,9.22
2022-12-08T14:53:55.884Z,9.42
2022-12-08T14:56:47.032Z,9.29
2022-12-08T14:59:23.166Z,9.51
2022-12-08T15:01:52.171Z,9.50
2022-12-08T15:04:23.531Z,9.64
2022-12-08T15:06:59.657Z,9.61
2022-12-08T15:09:38.043Z,9.49
2022-12-08T15:12:26.986Z,9.57
2022-12-08T15:15:09.300Z,8.94
2022-12-08T15:17:45.066Z,9.00
2022-12-08T15:20:38.830Z,8.67
2022-12-08T15:23:05.872Z,8.84
2022-12-08T15:25:32.818Z,8.82
2022-12-08T15:27:59.741Z,8.80
2022-12-08T15:30:26.633Z,8.93
2022-12-08T15:32:54.319Z,8.92
2022-12-08T15:35:21.375Z,8.63
2022-12-08T15:37:48.050Z,8.73
2022-12-08T15:40:20.442Z,8.87
2022-12-08T15:42:47.633Z,8.08
2022-12-08T15:45:16.693Z,8.35
2022-12-08T15:47:44.447Z,8.27
2022-12-08T15:50:19.515Z,8.50
2022-12-08T15:52:46.581Z,8.74
2022-12-08T15:55:14.434Z,8.23
2022-12-08T15:58:31.198Z,8.53
2022-12-08T16:09:12.236Z,8.14
2022-12-08T16:12:08.311Z,7.99
2022-12-08T16:17:24.587Z,8.56
2022-12-08T16:19:51.486Z,8.41
2022-12-08T16:25:18.274Z,9.31
2022-12-08T16:28:08.742Z,8.98
2022-12-08T16:30:39.904Z,8.71
2022-12-08T16:33:06.737Z,8.55
2022-12-08T16:35:33.735Z,8.38
2022-12-08T16:38:00.467Z,8.47
2022-12-08T16:40:27.298Z,8.07
2022-12-08T16:42:54.257Z,8.15
2022-12-08T16:45:24.153Z,8.31
2022-12-08T16:47:59.721Z,8.26
2022-12-08T16:50:27.918Z,8.20
2022-12-08T16:53:00.156Z,8.13
2022-12-08T16:55:27.608Z,7.58
2022-12-08T16:57:54.663Z,7.49
2022-12-08T17:00:26.402Z,7.60
2022-12-08T17:02:53.847Z,7.35
2022-12-08T17:05:22.496Z,7.36
2022-12-08T17:07:53.584Z,7.56
2022-12-08T17:10:23.576Z,7.51
2022-12-08T17:12:50.985Z,7.35
2022-12-08T17:15:20.863Z,7.19
2022-12-08T17:17:47.765Z,7.07
2022-12-08T17:20:17.526Z,7.20
2022-12-08T17:22:45.477Z,7.31
2022-12-08T17:25:12.421Z,6.90
2022-12-08T17:27:40.188Z,6.78
2022-12-08T17:30:08.961Z,6.65
2022-12-08T17:32:37.717Z,7.18
2022-12-08T17:35:05.167Z,7.05
2022-12-08T17:37:32.075Z,6.87
2022-12-08T17:39:58.977Z,6.70
2022-12-08T17:42:27.453Z,6.77
2022-12-08T17:44:55.087Z,6.51
2022-12-08T17:47:22.447Z,6.85
2022-12-08T17:49:49.358Z,6.68
2022-12-08T17:52:16.226Z,6.84
2022-12-08T17:54:44.395Z,6.55
2022-12-08T17:57:11.242Z,6.68
2022-12-08T17:59:38.002Z,6.86
2022-12-08T18:02:04.860Z,6.82
2022-12-08T18:04:31.865Z,6.97
2022-12-08T18:07:01.414Z,7.13
2022-12-08T18:09:30.997Z,6.98
2022-12-08T18:11:57.855Z,6.69
2022-12-08T18:14:24.732Z,6.82
2022-12-08T18:16:51.768Z,6.66
2022-12-08T18:19:19.831Z,6.90
2022-12-08T18:21:46.601Z,6.59
2022-12-08T18:24:20.422Z,6.61
2022-12-08T18:26:47.991Z,6.72
2022-12-08T18:29:14.936Z,6.67
2022-12-08T18:31:41.762Z,6.60
2022-12-08T18:34:08.525Z,6.54
2022-12-08T18:36:35.475Z,6.59
2022-12-08T18:39:05.848Z,6.51
2022-12-08T18:41:37.263Z,6.50
2022-12-08T18:44:04.276Z,6.76
2022-12-08T18:46:31.401Z,6.31
2022-12-08T18:48:59.453Z,6.46
2022-12-08T18:51:26.644Z,6.98
2022-12-08T18:53:53.506Z,6.97
2022-12-08T18:56:32.401Z,6.50
2022-12-08T18:59:05.916Z,6.57
2022-12-08T19:01:33.958Z,6.38
2022-12-08T19:06:53.241Z,6.61
2022-12-08T19:09:20.479Z,6.62
2022-12-08T19:11:47.823Z,6.17
2022-12-08T19:14:25.761Z,6.32
2022-12-08T19:16:55.180Z,6.12
2022-12-08T19:19:21.893Z,6.16
2022-12-08T19:21:48.696Z,6.34
2022-12-08T19:24:15.505Z,6.09
2022-12-08T19:26:42.758Z,5.90
2022-12-08T19:29:09.979Z,6.23
2022-12-08T19:31:36.966Z,6.16
2022-12-08T19:34:05.384Z,5.84
2022-12-08T19:36:35.647Z,6.17
2022-12-08T19:39:22.487Z,6.01
2022-12-08T19:42:08.880Z,5.97
2022-12-08T19:44:54.162Z,5.84
2022-12-08T19:47:26.127Z,5.97
2022-12-08T19:49:55.165Z,5.70
2022-12-08T19:52:23.407Z,6.02
2022-12-08T19:54:50.200Z,5.79
2022-12-08T19:57:17.092Z,6.51
2022-12-08T19:59:43.999Z,6.19
2022-12-08T20:02:11.292Z,5.92
2022-12-08T20:04:38.193Z,5.95
2022-12-08T20:07:04.881Z,6.26
2022-12-08T20:09:31.682Z,5.99
2022-12-08T20:11:58.402Z,6.13
2022-12-08T20:14:25.794Z,6.16
2022-12-08T20:16:57.117Z,6.12
2022-12-08T20:19:24.234Z,6.02
2022-12-08T20:21:51.023Z,6.46
2022-12-08T20:24:17.855Z,5.79
2022-12-08T20:26:44.951Z,6.03
2022-12-08T20:29:12.123Z,6.17
2022-12-08T20:31:38.837Z,5.94
2022-12-08T20:34:05.722Z,6.12
2022-12-08T20:36:32.460Z,6.04
2022-12-08T20:38:59.220Z,5.69
2022-12-08T20:41:26.030Z,5.86
2022-12-08T20:43:54.064Z,5.78
2022-12-08T20:46:23.929Z,5.81
2022-12-08T20:48:50.810Z,5.56
2022-12-08T20:51:19.403Z,5.87
2022-12-08T20:53:47.162Z,5.62
2022-12-08T20:56:18.584Z,5.90
2022-12-08T20:58:46.104Z,5.77
2022-12-08T21:01:15.563Z,5.81
2022-12-08T21:03:43.566Z,5.60
2022-12-08T21:06:10.597Z,5.74
2022-12-08T21:08:38.882Z,6.04
2022-12-08T21:11:06.611Z,6.17
2022-12-08T21:13:37.327Z,6.34
2022-12-08T21:16:04.915Z,5.92
2022-12-08T21:18:38.998Z,6.00
2022-12-08T21:21:09.142Z,5.60
2022-12-08T21:23:36.048Z,5.71
2022-12-08T21:26:09.004Z,5.41
2022-12-08T21:28:36.178Z,5.83
2022-12-08T21:31:07.291Z,5.97
2022-12-08T21:33:37.946Z,6.34
2022-12-08T21:36:17.107Z,6.51
2022-12-08T21:38:50.712Z,6.74
2022-12-08T21:41:41.239Z,6.11
2022-12-08T21:44:10.982Z,5.93
2022-12-08T21:46:38.699Z,5.99
2022-12-08T21:49:06.114Z,6.09
2022-12-08T21:51:35.160Z,6.27
2022-12-08T21:54:02.272Z,6.16
2022-12-08T21:56:29.279Z,5.93
2022-12-08T21:58:56.221Z,6.31
2022-12-08T22:01:23.923Z,6.20
2022-12-08T22:03:50.820Z,6.15
2022-12-08T22:06:17.671Z,6.59
2022-12-08T22:08:44.769Z,6.70
2022-12-08T22:11:12.089Z,6.50
2022-12-08T22:13:40.923Z,6.52
2022-12-08T22:16:10.134Z,6.35
2022-12-08T22:18:37.958Z,6.50
2022-12-08T22:21:15.624Z,6.97
2022-12-08T22:23:42.621Z,6.52
2022-12-08T22:26:10.676Z,6.13
2022-12-08T22:28:39.875Z,6.00
2022-12-08T22:31:10.051Z,6.22
2022-12-08T22:33:37.641Z,6.56
2022-12-08T22:36:10.653Z,7.11
2022-12-08T22:38:38.002Z,7.36
2022-12-08T22:41:07.354Z,7.26
2022-12-08T22:43:35.866Z,7.31
2022-12-08T22:46:10.177Z,7.06
2022-12-08T22:48:38.923Z,7.22
2022-12-08T22:51:06.029Z,6.57
2022-12-08T22:53:33.083Z,6.40
2022-12-08T22:56:00.609Z,6.63
2022-12-08T22:58:29.013Z,6.33
2022-12-08T23:00:55.817Z,6.38
2022-12-08T23:03:22.742Z,6.26
2022-12-08T23:05:50.425Z,6.07
2022-12-08T23:08:18.030Z,5.97
2022-12-08T23:10:45.876Z,5.89
2022-12-08T23:13:13.795Z,5.96
2022-12-08T23:15:41.019Z,5.92
2022-12-08T23:18:07.983Z,5.80
2022-12-08T23:20:35.640Z,5.44
2022-12-08T23:23:02.650Z,5.72
2022-12-08T23:25:29.879Z,5.69
2022-12-08T23:27:56.630Z,5.65
2022-12-08T23:30:24.010Z,5.93
2022-12-08T23:32:51.041Z,5.95
2022-12-08T23:35:17.901Z,5.75
2022-12-08T23:37:45.113Z,5.57
2022-12-08T23:40:12.389Z,5.66
2022-12-08T23:42:39.534Z,5.44
2022-12-08T23:45:08.896Z,5.04
2022-12-08T23:47:36.339Z,4.81
2022-12-08T23:50:04.684Z,5.00
2022-12-08T23:52:31.834Z,5.72
2022-12-08T23:54:58.607Z,6.61
2022-12-08T23:57:25.488Z,7.14
2022-12-08T23:59:52.165Z,7.28
